Terminal Aerodrome Forecast
Issued by NWS Green Bay, WI

Home | Current Version | Previous Version | Text Only | Print | Product List | Glossary On
Versions: 1 2 3 4 5 6 7 8 9 10 11 12 13 14 15 16 17 18 19 20 21 22 23 24 25 26 27 28 29 30 31 32 33 34 35 36 37 38 39 40 41 42 43 44 45 46
860
FTUS43 KGRB 181354 AAH
TAFGRB
TAF AMD
KGRB 181354Z 1814/1912 18005KT 2SM -SN OVC012
      TEMPO 1814/1816 1/4SM +SN BKN008
     FM181900 28013G24KT 1 1/2SM -SN BLSN OVC012
     FM190100 28019G30KT 4SM BLSN OVC020
     FM190800 28018G27KT 6SM BLSN OVC025=

USA.gov is the U.S. government's official web portal to all federal, state and local government web resources and services.